KLOM

Wings Field Airport

Philadelphia, Pennsylvania, USA
METAR KLOM 200055Z AUTO 00000KT 10SM CLR M01/M05 A3002 RMK AO1
Observed Flight Rules
Jan-20 @ 00:55 UTC (26 minutes ago) Visual Flight Rules
Wind Visibility Clouds
Calm 10 miles
  • Clear skies
Temperatures Readings
Current -1°C / 30°F
Dewpoint -5°C / 23°F
Humidity 75%
Altimeter 30.02" Hg
Pressure 1017 hPa
Elevation 92
METAR KLOM 200055Z AUTO 00000KT 10SM CLR M01/M05 A3002 RMK AO1
Observed Flight Rules
Jan-20 @ 00:55 UTC
(26 minutes ago)
VFR
Wind Visibility
Calm 10 miles
Clouds
  • Clear skies
Temperature Dewpoint
-1°C / 30°F -5°C / 23°F
Humidity Altimeter Pressure
75% 30.02" Hg 1017 hPa